CW8847 Weather Reports


Display with metric or nautical units.
time (UTC)temp
F
wind
direction
speed
MPH
gust
MPH
rain 1hr
in
rain 24hr
in
rain mn
in
humidity
%
barometer
mb
20190223183630 25 322 2.0 4.0 0.00 0.00 0.00 78 1034.0
20190223182620 25 322 2.0 5.0 0.00 0.00 0.00 77 1033.9
20190223181625 25 322 2.0 4.0 0.00 0.00 0.00 76 1033.9
20190223180630 25 322 2.0 3.0 0.00 0.00 0.00 76 1033.9
20190223175631 24 322 2.0 4.0 0.00 0.00 0.00 75 1033.9
20190223174615 25 322 1.0 4.0 0.00 0.00 0.00 75 1033.8
20190223173624 24 322 2.0 4.0 0.00 0.00 0.00 77 1033.8
20190223172628 23 322 2.0 6.0 0.00 0.00 0.00 77 1033.7
20190223171613 23 322 3.0 6.0 0.00 0.00 0.00 77 1033.8
20190223170617 23 323 5.0 10.0 0.00 0.00 0.00 77 1033.8
20190223165622 22 355 3.0 6.0 0.00 0.00 0.00 77 1033.7
20190223164630 22 355 4.0 5.0 0.00 0.00 0.00 76 1033.7
20190223163616 22 355 3.0 5.0 0.00 0.00 0.00 76 1033.5
20190223162623 22 355 2.0 4.0 0.00 0.00 0.00 76 1033.5
20190223161612 21 355 1.0 2.0 0.00 0.00 0.00 77 1033.3
20190223160617 20 355 1.0 2.0 0.00 0.00 0.00 78 1033.4
20190223155620 20 355 0.0 3.0 0.00 0.00 0.00 78 1033.3
20190223154625 20 355 1.0 3.0 0.00 0.00 0.00 78 1033.2
20190223153614 20 355 1.0 3.0 0.00 0.00 0.00 77 1032.9
20190223152621 20 355 1.0 5.0 0.00 0.00 0.00 77 1032.8
20190223151628 20 355 1.0 3.0 0.00 0.00 0.00 77 1032.7
20190223150614 20 355 1.0 2.0 0.00 0.00 0.00 78 1032.5
20190223145619 19 355 2.0 3.0 0.00 0.00 0.00 78 1032.5
20190223144624 19 355 2.0 2.0 0.00 0.00 0.00 79 1032.5
20190223143629 19 355 1.0 3.0 0.00 0.00 0.00 79 1032.4
20190223142614 18 355 1.0 3.0 0.00 0.00 0.00 81 1032.3
20190223141623 17 355 2.0 3.0 0.00 0.00 0.00 84 1032.2
20190223140628 14 355 1.0 2.0 0.00 0.00 0.00 82 1031.9
20190223135628 14 355 1.0 2.0 0.00 0.00 0.00 78 1031.8
20190223134615 16 355 0.0 4.0 0.00 0.00 0.00 75 1031.6
20190223133621 18 355 2.0 3.0 0.00 0.00 0.00 80 1031.9
20190223132612 17 355 1.0 3.0 0.00 0.00 0.00 79 1031.9
20190223131619 16 355 1.0 3.0 0.00 0.00 0.00 79 1031.7
20190223130613 16 355 2.0 3.0 0.00 0.00 0.00 78 1031.8
20190223125618 16 355 2.0 3.0 0.00 0.00 0.00 78 1031.9
20190223124629 15 355 2.0 3.0 0.00 0.00 0.00 79 1031.6
20190223123615 14 355 2.0 3.0 0.00 0.00 0.00 80 1031.4
20190223122621 13 355 3.0 4.0 0.00 0.00 0.00 81 1031.4
20190223121625 13 355 3.0 4.0 0.00 0.00 0.00 82 1031.1
20190223120613 12 355 0.0 1.0 0.00 0.00 0.00 83 1031.2
20190223115615 11 355 2.0 2.0 0.00 0.00 0.00 83 1031.1
20190223114622 12 355 1.0 3.0 0.00 0.00 0.00 82 1031.1
20190223113629 12 355 2.0 3.0 0.00 0.00 0.00 82 1031.0
20190223112619 12 355 1.0 2.0 0.00 0.00 0.00 82 1031.0
20190223111626 12 355 0.0 2.0 0.00 0.00 0.00 82 1030.9
20190223110613 12 355 1.0 4.0 0.00 0.00 0.00 81 1030.9
20190223105613 12 355 3.0 4.0 0.00 0.00 0.00 81 1031.0
20190223104618 11 355 3.0 5.0 0.00 0.00 0.00 80 1030.9
20190223103626 11 355 3.0 5.0 0.00 0.00 0.00 79 1030.7
20190223102631 13 355 4.0 5.0 0.00 0.00 0.00 75 1030.8
20190223101615 15 355 4.0 5.0 0.00 0.00 0.00 76 1030.7
20190223100621 15 355 5.0 6.0 0.00 0.00 0.00 78 1030.7
20190223095625 14 24 3.0 4.0 0.00 0.00 0.00 77 1030.9
20190223094631 14 24 1.0 4.0 0.00 0.00 0.00 78 1030.9
20190223093617 13 24 3.0 4.0 0.00 0.00 0.00 80 1031.1
20190223092622 13 24 3.0 6.0 0.00 0.00 0.00 79 1031.1
20190223091629 14 24 4.0 8.0 0.00 0.00 0.00 76 1031.2
20190223090617 14 342 0.0 2.0 0.00 0.00 0.00 77 1030.8
20190223085618 14 342 2.0 4.0 0.00 0.00 0.00 76 1030.6
20190223084625 15 342 3.0 4.0 0.00 0.00 0.00 76 1030.4
20190223083616 15 342 3.0 4.0 0.00 0.00 0.00 75 1030.3
20190223082622 15 342 3.0 4.0 0.00 0.00 0.00 75 1030.3
20190223081629 15 342 4.0 5.0 0.00 0.00 0.00 76 1030.3
20190223080615 16 342 5.0 6.0 0.00 0.00 0.00 72 1030.1
20190223075622 17 343 0.0 2.0 0.00 0.00 0.00 73 1030.0
20190223074628 16 343 2.0 3.0 0.00 0.00 0.00 74 1029.8
20190223073615 16 343 1.0 4.0 0.00 0.00 0.00 74 1029.9
20190223072622 15 343 3.0 5.0 0.00 0.00 0.00 75 1029.9
20190223071613 16 343 4.0 5.0 0.00 0.00 0.00 73 1029.8
20190223070629 17 343 4.0 5.0 0.00 0.00 0.00 72 1029.7
20190223065628 17 343 1.0 4.0 0.00 0.00 0.00 70 1029.4
20190223064613 17 343 3.0 3.0 0.00 0.00 0.00 71 1029.6
20190223063618 17 343 2.0 3.0 0.00 0.00 0.00 71 1029.6
20190223062627 17 343 3.0 3.0 0.00 0.00 0.00 69 1029.5
20190223061632 17 343 2.0 3.0 0.00 0.00 0.00 69 1029.5
20190223060618 17 343 2.0 3.0 0.00 0.00 0.00 70 1029.5
20190223055620 17 343 0.0 3.0 0.00 0.00 0.00 68 1029.4
20190223054611 18 343 1.0 3.0 0.00 0.00 0.00 67 1029.4
20190223053619 18 343 1.0 5.0 0.00 0.00 0.00 67 1029.3
20190223052626 19 343 2.0 3.0 0.00 0.00 0.00 66 1029.3
20190223051613 19 343 1.0 4.0 0.00 0.00 0.00 65 1029.2
20190223050623 20 343 1.0 2.0 0.00 0.00 0.00 65 1029.1
20190223045624 20 343 2.0 5.0 0.00 0.00 0.00 64 1029.0
20190223044629 20 344 5.0 13.0 0.00 0.00 0.00 68 1029.0
20190223043613 19 5 10.0 13.0 0.00 0.00 0.00 69 1028.9
20190223042618 19 9 11.0 13.0 0.00 0.00 0.00 70 1028.9
20190223041626 19 5 11.0 13.0 0.00 0.00 0.00 69 1028.9
20190223040630 19 11 8.0 14.0 0.00 0.00 0.00 67 1028.8
20190223035630 19 19 7.0 12.0 0.00 0.00 0.00 67 1028.6
20190223034615 20 12 10.0 12.0 0.00 0.00 0.00 65 1028.6
20190223033625 19 18 10.0 13.0 0.00 0.00 0.00 68 1028.7
20190223032629 18 9 9.0 13.0 0.00 0.00 0.00 66 1028.6
20190223031615 18 5 10.0 12.0 0.00 0.00 0.00 68 1028.4
20190223030622 18 349 4.0 9.0 0.00 0.00 0.00 68 1028.2
20190223025628 18 342 3.0 4.0 0.00 0.00 0.00 68 1028.2
20190223024614 18 342 1.0 3.0 0.00 0.00 0.00 67 1028.1
20190223023622 19 342 3.0 6.0 0.00 0.00 0.00 65 1028.0
20190223022628 19 343 2.0 10.0 0.00 0.00 0.00 66 1027.7
20190223021618 19 346 2.0 4.0 0.00 0.00 0.00 67 1027.7
20190223020625 19 346 3.0 8.0 0.00 0.00 0.00 66 1027.4
20190223015624 20 346 7.0 9.0 0.00 0.00 0.00 64 1027.5
20190223014631 20 346 1.0 3.0 0.00 0.00 0.00 65 1027.4
20190223013620 20 346 0.0 4.0 0.00 0.00 0.00 66 1027.3
20190223012625 20 346 3.0 5.0 0.00 0.00 0.00 67 1027.0
20190223011629 21 346 0.0 2.0 0.00 0.00 0.00 67 1026.9
20190223010616 22 346 2.0 2.0 0.00 0.00 0.00 65 1026.7
20190223005616 22 346 2.0 12.0 0.00 0.00 0.00 63 1026.8
20190223004625 22 15 11.0 16.0 0.00 0.00 0.00 63 1026.5
20190223003629 21 19 12.0 15.0 0.00 0.00 0.00 64 1026.4
20190223002616 22 39 5.0 9.0 0.00 0.00 0.00 61 1026.2
20190223001623 25 36 4.0 7.0 0.00 0.00 0.00 58 1026.5
20190223000631 25 34 2.0 5.0 0.00 0.00 0.00 57 1026.2
20190222235614 25 34 5.0 12.0 0.00 0.00 0.00 57 1026.1
20190222234622 26 49 6.0 14.0 0.00 0.00 0.00 54 1025.9
20190222233628 27 21 3.0 5.0 0.00 0.00 0.00 52 1025.9
20190222232616 25 9 5.0 13.0 0.00 0.00 0.00 57 1025.8
20190222231621 24 51 11.0 18.0 0.00 0.00 0.00 66 1025.7
20190222230626 24 46 13.0 17.0 0.00 0.00 0.00 66 1025.8
20190222225627 24 54 13.0 16.0 0.00 0.00 0.00 66 1025.8
20190222224613 24 42 14.0 20.0 0.00 0.00 0.00 66 1025.7
20190222223622 24 32 17.0 21.0 0.00 0.00 0.00 65 1025.6
20190222222627 25 47 15.0 19.0 0.00 0.00 0.00 64 1025.5
20190222221631 25 54 13.0 17.0 0.00 0.00 0.00 60 1025.6
20190222220617 25 59 14.0 22.0 0.00 0.00 0.00 61 1025.4
20190222215621 25 44 14.0 22.0 0.00 0.00 0.00 61 1025.3
20190222214626 24 42 9.0 20.0 0.00 0.00 0.00 62 1025.3
20190222213630 24 34 13.0 19.0 0.00 0.00 0.00 67 1025.3
20190222212615 24 43 13.0 21.0 0.00 0.00 0.00 65 1025.3
20190222211624 23 30 17.0 21.0 0.00 0.00 0.00 64 1025.2
20190222210629 23 21 19.0 25.0 0.00 0.00 0.00 62 1025.1
20190222205628 24 32 19.0 24.0 0.00 0.00 0.00 60 1025.2
20190222204614 24 38 17.0 24.0 0.00 0.00 0.00 60 1025.2
20190222203623 24 36 17.0 19.0 0.00 0.00 0.00 59 1025.1
20190222202627 24 30 15.0 19.0 0.00 0.00 0.00 59 1025.3
20190222201631 23 24 16.0 20.0 0.00 0.00 0.00 59 1025.5
20190222200616 23 33 19.0 23.0 0.00 0.00 0.00 57 1025.4
20190222195616 24 32 17.0 24.0 0.00 0.00 0.00 59 1025.5
20190222194626 24 24 17.0 23.0 0.00 0.00 0.00 60 1025.3
20190222193630 24 32 19.0 22.0 0.00 0.00 0.00 56 1025.5
20190222192616 24 39 17.0 20.0 0.00 0.00 0.00 55 1025.5
20190222191622 24 29 13.0 21.0 0.00 0.00 0.00 54 1025.9
20190222190620 26 291 1.0 5.0 0.00 0.00 0.00 54 1025.9
20190222185623 26 281 5.0 9.0 0.00 0.00 0.00 55 1025.7
20190222184628 26 275 5.0 8.0 0.00 0.00 0.00 52 1025.6